Flight Track Log - Related Links

Times and Time Zones

All times are in EDT time to prevent confusion due to time zone crossing. See the SWA1707 flight status page for this flight to view local times or setup timezone preferences in your user account.


Time Position Orientation Groundspeed Altitude Reporting Facility
EDT Latitude Longitude Course Direction KTS MPH feet Rate Location/Type
Thu 02:50:53 PM 42.3667 -70.9833 79° East 156 180 800  Level KA90
Thu 02:52:32 PM 42.3833 -70.8661 79° East 227 261 4,400 2,604 Climbing Boston Center
Thu 02:53:32 PM 42.3861 -70.7761 88° East 232 267 7,700 3,300 Climbing Boston Center
Thu 02:54:32 PM 42.3083 -70.7247 154° Southeast 213 245 11,000 2,500 Climbing Boston Center
Thu 02:55:32 PM 42.2281 -70.7969 214° Southwest 255 293 12,700 2,000 Climbing Boston Center
Thu 02:56:32 PM 42.2172 -70.9122 263° West 271 312 15,000 2,300 Climbing Boston Center
Thu 02:57:32 PM 42.2128 -71.0636 268° West 365 420 17,300 1,850 Climbing Boston Center
Thu 02:58:32 PM 42.2103 -71.1956 269° West 383 441 18,700 1,750 Climbing Boston Center
Thu 02:59:32 PM 42.2078 -71.3639 269° West 400 460 20,800 1,950 Climbing Boston Center
Thu 03:00:32 PM 42.2050 -71.5181 269° West 406 467 22,600 1,650 Climbing Boston Center
Thu 03:01:32 PM 42.1975 -71.6583 266° West 411 473 24,100 1,400 Climbing Boston Center
Thu 03:02:32 PM 42.1922 -71.8153 267° West 417 480 25,400 1,450 Climbing Boston Center
Thu 03:03:32 PM 42.1869 -71.9778 268° West 423 487 27,000 1,300 Climbing Boston Center
Thu 03:04:32 PM 42.1811 -72.1375 267° West 428 493 28,000 1,300 Climbing Boston Center
Thu 03:05:32 PM 42.1753 -72.3169 268° West 428 493 29,600 1,450 Climbing Boston Center
Thu 03:06:32 PM 42.1692 -72.4764 267° West 433 498 30,900 1,200 Climbing Boston Center
Thu 03:07:32 PM 42.1628 -72.6361 267° West 433 498 32,000 1,300 Climbing Boston Center
Thu 03:08:32 PM 42.1228 -72.7900 251° West 427 491 33,500 1,050 Climbing Boston Center
Thu 03:09:32 PM 42.0556 -72.8986 230° Southwest 422 486 34,100 900 Climbing Boston Center
Thu 03:10:32 PM 41.9653 -73.0489 231° Southwest 450 518 35,300 950 Climbing Boston Center
Thu 03:11:32 PM 41.8625 -73.1481 216° Southwest 444 511 36,000 350 Climbing Boston Center
Thu 03:12:32 PM 41.7578 -73.2389 213° Southwest 455 524 36,000  Level Boston Center
Thu 03:13:32 PM 41.6528 -73.3292 213° Southwest 460 529 36,000  Level Boston Center
Thu 03:15:09 PM 41.5339 -73.5092 229° Southwest 428 493 36,000  Level New York Center
Thu 03:16:10 PM 41.4539 -73.6361 230° Southwest 441 507 36,000  Level New York Center
Thu 03:17:10 PM 41.3736 -73.7597 229° Southwest 452 520 36,000  Level New York Center
Thu 03:18:11 PM 41.2892 -73.8858 228° Southwest 457 526 36,000  Level New York Center
Thu 03:19:11 PM 41.2047 -74.0086 228° Southwest 452 520 36,000  Level New York Center
Thu 03:20:09 PM 41.1264 -74.1317 230° Southwest 452 520 36,000  Level New York Center
Thu 03:21:10 PM 41.0553 -74.2794 237° Southwest 447 514 36,000  Level New York Center
Thu 03:22:11 PM 40.9886 -74.4161 237° Southwest 447 514 36,000  Level New York Center
Thu 03:23:11 PM 40.9261 -74.5528 239° Southwest 442 509 36,000  Level New York Center
Thu 03:24:10 PM 40.8633 -74.6836 238° Southwest 437 503 36,000  Level New York Center
Thu 03:25:10 PM 40.8006 -74.8200 239° Southwest 437 503 36,000 -49 Level New York Center
Thu 03:26:12 PM 40.7394 -74.9586 240° Southwest 437 503 35,900  Descending New York Center
Thu 03:27:10 PM 40.6783 -75.0892 238° Southwest 437 503 36,000 51 Climbing New York Center
Thu 03:28:10 PM 40.6172 -75.2219 239° Southwest 437 503 36,000  Level New York Center
Thu 03:29:11 PM 40.5578 -75.3575 240° Southwest 437 503 36,000  Level New York Center
Thu 03:30:11 PM 40.4964 -75.4897 239° Southwest 432 497 36,000  Level New York Center
Thu 03:31:10 PM 40.4347 -75.6219 239° Southwest 432 497 36,000  Level New York Center
Thu 03:32:10 PM 40.3753 -75.7511 239° Southwest 426 490 36,000 -49 Level New York Center
Thu 03:33:12 PM 40.3153 -75.8831 239° Southwest 426 490 35,900  Descending New York Center
Thu 03:34:09 PM 40.2492 -76.0142 237° Southwest 440 506 36,000 51 Climbing New York Center
Thu 03:35:09 PM 40.1892 -76.1456 239° Southwest 434 499 36,000  Level New York Center
Thu 03:36:10 PM 40.1294 -76.2631 236° Southwest 434 499 36,000  Level New York Center
Thu 03:37:11 PM 40.0711 -76.3942 240° Southwest 434 499 36,000  Level New York Center
Thu 03:38:12 PM 40.0125 -76.5278 240° Southwest 434 499 36,000  Level New York Center
Thu 03:39:09 PM 39.9500 -76.6553 237° Southwest 429 494 36,000  Level New York Center
Thu 03:40:47 PM 39.8506 -76.8672 239° Southwest 426 490 36,000  Level Washington Center
Thu 03:41:47 PM 39.7908 -76.9956 239° Southwest 426 490 36,000  Level Washington Center
Thu 03:42:48 PM 39.7289 -77.1267 238° Southwest 426 490 36,000  Level Washington Center
Thu 03:43:48 PM 39.6689 -77.2547 239° Southwest 426 490 36,000  Level Washington Center
Thu 03:44:46 PM 39.6086 -77.3800 238° Southwest 426 490 36,000  Level Washington Center
Thu 03:45:46 PM 39.5464 -77.5131 239° Southwest 426 490 36,000  Level Washington Center
Thu 03:46:46 PM 39.4858 -77.6406 238° Southwest 426 490 36,000  Level Washington Center
Thu 03:47:47 PM 39.4253 -77.7706 239° Southwest 426 490 36,000  Level Washington Center
Thu 03:48:48 PM 39.3622 -77.9136 240° Southwest 426 490 36,000  Level Washington Center
Thu 03:49:46 PM 39.3072 -78.0458 242° Southwest 426 490 36,000  Level Washington Center
Thu 03:50:47 PM 39.2544 -78.1781 243° Southwest 426 490 36,000  Level Washington Center
Thu 03:51:48 PM 39.2017 -78.3128 243° Southwest 421 484 36,000  Level Washington Center
Thu 03:52:46 PM 39.1486 -78.4447 243° Southwest 421 484 36,000  Level Washington Center
Thu 03:53:46 PM 39.0975 -78.5739 243° Southwest 416 479 36,000  Level Washington Center
Thu 03:54:47 PM 39.0439 -78.7081 243° Southwest 416 479 36,000  Level Washington Center
Thu 03:55:48 PM 38.9906 -78.8364 242° Southwest 416 479 36,000  Level Washington Center
Thu 03:56:46 PM 38.9369 -78.9650 242° Southwest 416 479 36,000  Level Washington Center
Thu 03:57:46 PM 38.8831 -79.0983 243° Southwest 421 484 36,000  Level Washington Center
Thu 03:58:46 PM 38.8353 -79.2347 246° West 421 484 36,000  Level Washington Center
Thu 03:59:47 PM 38.8100 -79.3800 257° West 416 479 36,000  Level Washington Center
Thu 04:00:47 PM 38.7822 -79.5278 256° West 416 479 36,000  Level Washington Center
Thu 04:01:48 PM 38.7564 -79.6756 257° West 433 498 36,000  Level Washington Center
Thu 04:02:48 PM 38.7308 -79.8178 257° West 427 491 36,000  Level Washington Center
Thu 04:03:46 PM 38.7050 -79.9575 257° West 416 479 36,000  Level Washington Center
Thu 04:05:34 PM 38.6589 -80.1872 256° West 406 467 36,000  Level Indianapolis Center
Thu 04:06:36 PM 38.6333 -80.3297 257° West 412 474 36,000  Level Indianapolis Center
Thu 04:07:39 PM 38.5986 -80.5017 256° West 414 476 36,000  Level Indianapolis Center
Thu 04:08:41 PM 38.5719 -80.6431 256° West 409 471 36,000  Level Indianapolis Center
Thu 04:09:43 PM 38.5461 -80.7836 257° West 405 466 36,000  Level Indianapolis Center
Thu 04:10:45 PM 38.5183 -80.9231 256° West 403 464 36,000  Level Indianapolis Center
Thu 04:11:47 PM 38.4919 -81.0619 256° West 403 464 36,000  Level Indianapolis Center
Thu 04:12:49 PM 38.4642 -81.2019 256° West 404 465 36,000  Level Indianapolis Center
Thu 04:13:51 PM 38.4353 -81.3431 255° West 407 468 36,000  Level Indianapolis Center
Thu 04:14:53 PM 38.4072 -81.4861 256° West 410 472 36,000  Level Indianapolis Center
Thu 04:15:55 PM 38.3722 -81.6592 256° West 415 478 36,000  Level Indianapolis Center
Thu 04:16:57 PM 38.3425 -81.8017 255° West 414 476 36,000  Level Indianapolis Center
Thu 04:17:59 PM 38.3022 -81.9378 249° West 408 470 36,000  Level Indianapolis Center
Thu 04:19:01 PM 38.2642 -82.0758 251° West 411 473 36,000  Level Indianapolis Center
Thu 04:20:03 PM 38.2258 -82.2125 250° West 411 473 36,000  Level Indianapolis Center
Thu 04:21:05 PM 38.1878 -82.3469 250° West 405 466 36,000  Level Indianapolis Center
Thu 04:22:07 PM 38.1472 -82.4819 249° West 408 470 36,000  Level Indianapolis Center
Thu 04:23:09 PM 38.0758 -82.6322 239° Southwest 413 475 36,000  Level Indianapolis Center
Thu 04:24:11 PM 38.0164 -82.7594 239° Southwest 418 481 36,000  Level Indianapolis Center
Thu 04:25:13 PM 37.9575 -82.8872 240° Southwest 420 483 36,000  Level Indianapolis Center
Thu 04:26:15 PM 37.8992 -83.0144 240° Southwest 418 481 36,000  Level Indianapolis Center
Thu 04:27:17 PM 37.8392 -83.1383 239° Southwest 415 478 36,000 -532 Level Indianapolis Center
Thu 04:28:19 PM 37.7722 -83.2811 239° Southwest 406 467 34,900 -960 Descending Indianapolis Center
Thu 04:29:22 PM 37.7144 -83.4025 239° Southwest 404 465 34,000 -432 Descending Indianapolis Center
Thu 04:30:24 PM 37.6569 -83.5242 239° Southwest 403 464 34,000  Level Indianapolis Center
Thu 04:31:26 PM 37.5981 -83.6478 239° Southwest 410 472 34,000 -226 Level Indianapolis Center
Thu 04:33:30 PM 37.4675 -83.9200 239° Southwest 422 486 33,300 -548 Descending Indianapolis Center
Thu 04:34:32 PM 37.4064 -84.0456 239° Southwest 423 487 32,300 -968 Descending Indianapolis Center
Thu 04:35:34 PM 37.3464 -84.1686 239° Southwest 417 480 31,300 -919 Descending Indianapolis Center
Thu 04:36:36 PM 37.2861 -84.2922 239° Southwest 416 479 30,400 -919 Descending Indianapolis Center
Thu 04:37:38 PM 37.2269 -84.4144 239° Southwest 412 474 29,400 -1,065 Descending Indianapolis Center
Thu 04:38:40 PM 37.1597 -84.5525 239° Southwest 400 460 28,200 -1,065 Descending Indianapolis Center
Thu 04:39:42 PM 37.1036 -84.6672 239° Southwest 389 448 27,200 -968 Descending Indianapolis Center
Thu 04:41:00 PM 37.0263 -84.8187 237° Southwest  Level FlightAware Approximate
Thu 04:44:52 PM 36.8350 -85.2236 242° Southwest 364 419 22,200  Level Indianapolis Center
Thu 04:45:54 PM 36.7847 -85.3289 247° West 356 410 22,000 -532 Descending Indianapolis Center
Thu 04:46:56 PM 36.7253 -85.4564 240° Southwest 354 407 21,100 -1,355 Descending Indianapolis Center
Thu 04:47:00 PM 36.7216 -85.4353 247° West  Level FlightAware Approximate
Thu 04:47:58 PM 36.6761 -85.5594 239° Southwest 348 400 19,200  Level Indianapolis Center
Thu 04:48:00 PM 36.6220 -85.6394 238° Southwest  Level FlightAware Approximate
Thu 04:49:00 PM 36.5636 -85.7561 238° Southwest  Level FlightAware Approximate
Thu 04:49:00 PM 36.6286 -85.6600 240° Southwest 341 392 17,500  Level Indianapolis Center
Thu 04:50:00 PM 36.5102 -85.8762 242° Southwest  Level FlightAware Approximate
Thu 04:50:02 PM 36.5797 -85.7622 239° Southwest 343 395 15,500  Level Indianapolis Center
Thu 04:51:05 PM 36.5281 -85.8708 239° Southwest 336 387 13,300 -1,968 Descending Indianapolis Center
Thu 04:52:07 PM 36.4811 -85.9692 239° Southwest 331 381 11,400 -1,548 Descending Indianapolis Center
Thu 04:53:09 PM 36.4369 -86.0636 240° Southwest 318 366 10,100 -1,339 Descending Indianapolis Center
Thu 04:54:08 PM 36.4019 -86.1492 243° Southwest 299 344 8,700 -1,462 Descending Memphis Center
Thu 04:55:08 PM 36.3697 -86.2486 248° West 292 336 7,200 -1,450 Descending Memphis Center
Thu 04:56:08 PM 36.3414 -86.3378 248° West 279 321 5,800 -1,400 Descending Memphis Center
Thu 04:57:08 PM 36.3128 -86.4217 247° West 274 315 4,400 -1,350 Descending Memphis Center
Thu 04:58:08 PM 36.2864 -86.5053 249° West 274 315 3,100 -900 Descending Memphis Center
Thu 04:59:08 PM 36.2506 -86.5661 234° Southwest 254 292 2,600 -600 Descending Memphis Center
Thu 05:00:08 PM 36.2147 -86.6142 227° Southwest 211 243 1,900 -450 Descending Memphis Center
Thu 05:01:08 PM 36.1800 -86.6414 212° Southwest 170 196 1,700 -450 Descending Memphis Center
Thu 05:02:08 PM 36.1469 -86.6531 196° South 154 177 1,000 -500 Descending Memphis Center
Thu 05:03:08 PM 36.1100 -86.6728 203° Southwest 146 168 700 -300 Descending Memphis Center
Thu 05:05:00 PM 36.1167 -86.6667 287° West  Level FlightAware Approximate
Thu 05:12:00 PM 36.1245 -86.6782 287° West  Level Estimated
Thu 05:13:00 PM 36.1245 -86.6782 287° West  Level Estimated
Thu 05:14:00 PM 36.1245 -86.6782 287° West  Level Estimated
Thu 05:15:00 PM 36.1245 -86.6782 287° West  Level Estimated
Thu 05:16:00 PM 36.1245 -86.6782 287° West  Level Estimated
Thu 05:17:00 PM 36.1245 -86.6782 287° West  Level Estimated
Thu 05:18:00 PM 36.1245 -86.6782 287° West  Level Estimated

Login

Don't have an account? Register now (free) for customized features, flight alerts, and more!